Time;durP1;ratioP1;P1;durP2;ratioP2;P2;SDS_P1;SDS_P2;PMS_P1;PMS_P2;Temp;Humidity;BMP_temperature;BMP_pressure;BME280_temperature;BME280_humidity;BME280_pressure;Samples;Min_cycle;Max_cycle;Signal;HPM_P1;HPM_P2
2024/01/17 06:43:59;;;;;;;6.30;3.13;;;;;;;;;;10614455;27;20128;-86
2024/01/17 06:49:00;;;;;;;;;;;;;;;;;;10590058;28;20027;-85
2024/01/17 06:54:01;;;;;;;7.07;4.10;;;;;;;;;;10582042;28;20286;-83
2024/01/17 06:59:02;;;;;;;6.78;3.28;;;;;;;;;;10578459;28;20111;-84
2024/01/17 07:04:03;;;;;;;6.38;2.47;;;;;;;;;;10579091;28;20398;-84
2024/01/17 07:09:04;;;;;;;6.60;4.10;;;;;;;;;;10579945;28;20032;-84
2024/01/17 07:14:05;;;;;;;11.55;4.60;;;;;;;;;;10585305;28;20639;-84
2024/01/17 07:19:07;;;;;;;9.88;4.90;;;;;;;;;;10592983;28;20024;-83
2024/01/17 07:24:10;;;;;;;8.15;5.20;;;;;;;;;;10593536;28;20024;-85
2024/01/17 07:29:16;;;;;;;6.57;4.25;;;;;;;;;;10609489;28;20028;-83
2024/01/17 07:34:18;;;;;;;7.57;4.90;;;;;;;;;;10603430;28;20080;-85
2024/01/17 07:39:19;;;;;;;6.80;4.45;;;;;;;;;;10595741;28;20028;-85
2024/01/17 07:44:20;;;;;;;8.75;5.03;;;;;;;;;;10598541;28;20027;-85
2024/01/17 07:49:22;;;;;;;10.30;8.38;;;;;;;;;;10597208;28;20081;-85
2024/01/17 07:54:23;;;;;;;7.10;4.10;;;;;;;;;;10576431;28;20086;-86
2024/01/17 07:59:27;;;;;;;7.68;4.25;;;;;;;;;;10585839;28;20020;-84
2024/01/17 08:04:28;;;;;;;6.55;3.20;;;;;;;;;;10585407;28;20044;-85
2024/01/17 08:09:29;;;;;;;8.70;6.13;;;;;;;;;;10555036;28;20035;-84
2024/01/17 08:14:31;;;;;;;10.15;6.22;;;;;;;;;;10560267;28;20093;-86
2024/01/17 08:19:33;;;;;;;9.55;6.40;;;;;;;;;;10555859;28;20032;-84
2024/01/17 08:24:34;;;;;;;11.85;5.45;;;;;;;;;;10553312;28;20040;-80
2024/01/17 08:29:35;;;;;;;8.70;5.40;;;;;;;;;;10551758;28;20035;-80
2024/01/17 08:34:36;;;;;;;9.50;5.40;;;;;;;;;;10551945;28;20020;-79
2024/01/17 08:39:37;;;;;;;11.38;5.88;;;;;;;;;;10550050;28;20517;-80
2024/01/17 08:44:42;;;;;;;13.20;6.47;;;;;;;;;;10545601;28;20024;-80
2024/01/17 08:49:43;;;;;;;10.15;5.55;;;;;;;;;;10546178;28;20020;-80
2024/01/17 08:54:44;;;;;;;10.20;5.45;;;;;;;;;;10548558;28;20391;-79
2024/01/17 08:59:45;;;;;;;8.95;5.47;;;;;;;;;;10551141;28;20062;-80
2024/01/17 09:04:46;;;;;;;8.20;5.38;;;;;;;;;;10550087;28;20540;-79
2024/01/17 09:09:48;;;;;;;8.10;5.35;;;;;;;;;;10554851;28;20102;-80
2024/01/17 09:14:49;;;;;;;7.50;5.30;;;;;;;;;;10561080;28;20023;-81
2024/01/17 09:19:50;;;;;;;8.05;5.75;;;;;;;;;;10573429;28;20479;-79
2024/01/17 09:24:51;;;;;;;10.70;4.85;;;;;;;;;;10583168;28;20020;-80
2024/01/17 09:29:52;;;;;;;7.95;4.75;;;;;;;;;;10549797;28;20037;-81
2024/01/17 09:34:53;;;;;;;8.45;5.75;;;;;;;;;;10550190;28;20450;-79
2024/01/17 09:39:54;;;;;;;10.73;6.22;;;;;;;;;;10549177;28;20114;-80
2024/01/17 09:44:56;;;;;;;8.77;5.80;;;;;;;;;;10549779;28;20058;-79
2024/01/17 09:49:57;;;;;;;9.32;6.22;;;;;;;;;;10549244;28;20081;-78
2024/01/17 09:54:59;;;;;;;7.07;4.85;;;;;;;;;;10546498;28;20532;-79
2024/01/17 10:00:09;;;;;;;11.18;5.78;;;;;;;;;;10548085;28;20031;-79
2024/01/17 10:05:11;;;;;;;9.10;4.95;;;;;;;;;;10548663;28;20023;-79
2024/01/17 10:10:12;;;;;;;7.78;4.70;;;;;;;;;;10547100;28;20032;-79
2024/01/17 10:15:14;;;;;;;7.38;4.40;;;;;;;;;;10547289;28;20464;-79
2024/01/17 10:20:16;;;;;;;7.60;4.45;;;;;;;;;;10548044;28;20028;-79
2024/01/17 10:25:17;;;;;;;9.32;4.90;;;;;;;;;;10547810;28;20020;-79
2024/01/17 10:30:20;;;;;;;11.30;5.28;;;;;;;;;;10546452;28;20028;-78
2024/01/17 10:35:23;;;;;;;11.95;5.70;;;;;;;;;;10546689;28;20059;-78
2024/01/17 10:40:24;;;;;;;7.57;4.93;;;;;;;;;;10546594;28;20043;-80
2024/01/17 10:45:25;;;;;;;7.63;5.13;;;;;;;;;;10555397;28;20031;-77
2024/01/17 10:50:27;;;;;;;7.72;4.97;;;;;;;;;;10569613;28;20031;-78
2024/01/17 10:55:29;;;;;;;9.25;6.25;;;;;;;;;;10546148;28;20023;-77
2024/01/17 11:00:31;;;;;;;7.32;4.40;;;;;;;;;;10545576;28;20020;-78
2024/01/17 11:05:34;;;;;;;9.32;5.90;;;;;;;;;;10546739;28;20039;-78
2024/01/17 11:10:35;;;;;;;6.88;4.55;;;;;;;;;;10544762;28;20085;-78
2024/01/17 11:15:38;;;;;;;7.40;4.57;;;;;;;;;;10551314;28;20112;-78
2024/01/17 11:20:40;;;;;;;7.88;5.25;;;;;;;;;;10550226;28;20024;-78
2024/01/17 11:25:58;;;;;;;7.63;5.72;;;;;;;;;;10548338;28;20019;-78
2024/01/17 11:31:18;;;;;;;8.02;4.25;;;;;;;;;;10553076;28;20480;-79
2024/01/17 11:36:38;;;;;;;10.27;5.82;;;;;;;;;;10552531;28;20115;-78
2024/01/17 11:41:39;;;;;;;7.38;5.20;;;;;;;;;;10556412;28;20466;-79
2024/01/17 11:46:40;;;;;;;;;;;;;;;;;;10553277;28;20055;-79
2024/01/17 11:51:41;;;;;;;7.00;4.90;;;;;;;;;;10549251;28;19915;-79
2024/01/17 11:56:42;;;;;;;7.25;5.05;;;;;;;;;;10552928;28;20395;-79
2024/01/17 12:01:43;;;;;;;;;;;;;;;;;;10554154;28;20028;-81
2024/01/17 12:06:49;;;;;;;6.35;4.53;;;;;;;;;;10570784;28;19908;-80
2024/01/17 12:11:50;;;;;;;7.47;4.55;;;;;;;;;;10565376;28;20020;-79
2024/01/17 12:16:51;;;;;;;6.80;4.38;;;;;;;;;;10553299;28;20391;-79
2024/01/17 12:21:52;;;;;;;;;;;;;;;;;;10553198;28;20473;-80
2024/01/17 12:26:53;;;;;;;5.15;3.97;;;;;;;;;;10553627;28;19904;-80
2024/01/17 12:31:54;;;;;;;7.40;4.53;;;;;;;;;;10554064;28;20097;-79
2024/01/17 12:36:55;;;;;;;7.43;4.43;;;;;;;;;;10557235;28;20422;-79
2024/01/17 12:41:56;;;;;;;;;;;;;;;;;;10555153;28;20097;-81
2024/01/17 12:46:58;;;;;;;7.30;4.43;;;;;;;;;;10552393;28;19957;-82
2024/01/17 12:51:59;;;;;;;7.90;4.72;;;;;;;;;;10538015;22;20128;-80
2024/01/17 12:57:01;;;;;;;8.20;5.47;;;;;;;;;;10385899;28;20517;-79
2024/01/17 13:02:05;;;;;;;9.15;5.10;;;;;;;;;;10387233;28;20412;-79
2024/01/17 13:07:06;;;;;;;8.63;5.70;;;;;;;;;;10386041;28;20092;-80
2024/01/17 13:12:09;;;;;;;7.15;4.53;;;;;;;;;;10387258;28;20025;-79
2024/01/17 13:17:15;;;;;;;8.30;5.55;;;;;;;;;;10388586;28;20032;-79
2024/01/17 13:22:18;;;;;;;7.20;4.75;;;;;;;;;;10387868;28;20061;-79
2024/01/17 13:27:19;;;;;;;7.72;5.20;;;;;;;;;;10385982;28;20037;-80
2024/01/17 13:32:20;;;;;;;7.10;4.63;;;;;;;;;;10381707;28;20057;-79
2024/01/17 13:37:22;;;;;;;7.22;5.10;;;;;;;;;;10397876;28;20065;-80
2024/01/17 13:42:23;;;;;;;10.68;6.88;;;;;;;;;;10384981;28;20022;-83
2024/01/17 13:47:24;;;;;;;12.55;8.82;;;;;;;;;;10384655;28;20149;-82
2024/01/17 13:52:31;;;;;;;13.98;10.82;;;;;;;;;;10382196;28;20456;-83
2024/01/17 13:57:32;;;;;;;11.48;6.30;;;;;;;;;;10382943;28;20512;-82
2024/01/17 14:02:33;;;;;;;11.80;7.40;;;;;;;;;;10382288;28;20032;-82
2024/01/17 14:07:34;;;;;;;9.48;5.20;;;;;;;;;;10388133;28;20081;-85
2024/01/17 14:12:36;;;;;;;8.98;6.40;;;;;;;;;;10387312;28;20148;-84
2024/01/17 14:17:37;;;;;;;8.52;5.28;;;;;;;;;;10416279;28;20049;-84
2024/01/17 14:22:38;;;;;;;10.05;6.50;;;;;;;;;;10389173;28;20032;-82
2024/01/17 14:27:42;;;;;;;17.50;12.05;;;;;;;;;;10388643;28;20030;-81
2024/01/17 14:32:43;;;;;;;15.73;11.55;;;;;;;;;;10363587;28;20033;-81
2024/01/17 14:37:45;;;;;;;9.82;6.80;;;;;;;;;;10383908;28;20049;-81
2024/01/17 14:42:47;;;;;;;9.25;6.95;;;;;;;;;;10381909;28;20026;-81
2024/01/17 14:47:52;;;;;;;12.77;8.88;;;;;;;;;;10379813;28;20089;-81
2024/01/17 14:52:53;;;;;;;11.40;6.90;;;;;;;;;;10394756;28;20076;-82
2024/01/17 14:57:54;;;;;;;13.45;9.95;;;;;;;;;;10383564;28;20425;-82
2024/01/17 15:02:55;;;;;;;11.40;7.47;;;;;;;;;;10385550;28;20124;-81
2024/01/17 15:07:57;;;;;;;8.05;5.30;;;;;;;;;;10391051;28;20040;-82
2024/01/17 15:12:58;;;;;;;7.72;5.63;;;;;;;;;;10392184;28;20112;-82
2024/01/17 15:17:59;;;;;;;13.80;7.57;;;;;;;;;;10392626;28;20150;-82
2024/01/17 15:23:00;;;;;;;13.45;9.27;;;;;;;;;;10393363;28;20034;-82
2024/01/17 15:28:01;;;;;;;7.38;4.97;;;;;;;;;;10396480;28;20030;-82
2024/01/17 15:33:03;;;;;;;8.52;5.72;;;;;;;;;;10397128;28;20036;-81
2024/01/17 15:38:11;;;;;;;9.02;6.30;;;;;;;;;;10392583;28;20549;-81
2024/01/17 15:43:12;;;;;;;5.82;3.80;;;;;;;;;;10394449;28;20026;-81
2024/01/17 15:48:13;;;;;;;7.22;4.88;;;;;;;;;;10393004;28;20061;-81
2024/01/17 15:53:15;;;;;;;10.27;5.65;;;;;;;;;;10393768;28;20034;-81
2024/01/17 15:58:17;;;;;;;6.53;4.00;;;;;;;;;;10393318;28;20041;-81
2024/01/17 16:03:18;;;;;;;13.02;8.25;;;;;;;;;;10393274;28;20034;-81
2024/01/17 16:08:19;;;;;;;6.57;4.68;;;;;;;;;;10402846;28;20125;-81
2024/01/17 16:13:20;;;;;;;8.48;4.88;;;;;;;;;;10393208;28;20034;-81
2024/01/17 16:18:21;;;;;;;8.10;5.38;;;;;;;;;;10389729;28;20026;-81
2024/01/17 16:23:22;;;;;;;8.43;5.85;;;;;;;;;;10391462;28;20043;-82
2024/01/17 16:28:23;;;;;;;6.35;4.45;;;;;;;;;;10390057;28;20029;-81
2024/01/17 16:33:24;;;;;;;7.55;5.90;;;;;;;;;;10389854;28;20113;-84
2024/01/17 16:38:25;;;;;;;9.40;4.28;;;;;;;;;;10387777;28;20104;-82
2024/01/17 16:43:26;;;;;;;8.82;5.30;;;;;;;;;;10387778;28;20044;-82
2024/01/17 16:48:32;;;;;;;7.00;4.57;;;;;;;;;;10390843;28;20124;-82
2024/01/17 16:53:34;;;;;;;8.75;5.57;;;;;;;;;;10389438;28;20037;-82
2024/01/17 16:58:35;;;;;;;11.95;8.55;;;;;;;;;;10387652;28;20025;-82
2024/01/17 17:03:36;;;;;;;5.95;4.75;;;;;;;;;;10385630;28;20454;-82
2024/01/17 17:08:37;;;;;;;6.55;4.40;;;;;;;;;;10387283;28;20054;-82
2024/01/17 17:13:38;;;;;;;6.50;4.85;;;;;;;;;;10385702;28;20084;-81
2024/01/17 17:18:40;;;;;;;6.85;4.53;;;;;;;;;;10387181;28;20018;-83
2024/01/17 17:23:44;;;;;;;6.30;4.63;;;;;;;;;;10385298;28;20026;-80
2024/01/17 17:28:46;;;;;;;9.05;5.75;;;;;;;;;;10383903;28;20500;-82
2024/01/17 17:33:47;;;;;;;;;;;;;;;;;;10382625;28;20034;-80
2024/01/17 17:38:48;;;;;;;9.82;5.63;;;;;;;;;;10383456;28;20369;-80
2024/01/17 17:43:49;;;;;;;8.77;5.35;;;;;;;;;;10382997;28;20121;-80
2024/01/17 17:48:50;;;;;;;9.82;5.45;;;;;;;;;;10381895;28;20482;-80
2024/01/17 17:53:52;;;;;;;8.75;5.28;;;;;;;;;;10385837;28;20026;-80
2024/01/17 17:58:53;;;;;;;7.30;5.28;;;;;;;;;;10419935;28;20038;-79
2024/01/17 18:03:54;;;;;;;7.25;5.38;;;;;;;;;;10382367;28;20028;-79
2024/01/17 18:08:57;;;;;;;5.70;4.43;;;;;;;;;;10381417;28;20089;-80
2024/01/17 18:13:59;;;;;;;7.82;5.38;;;;;;;;;;10394031;28;20018;-79
2024/01/17 18:19:00;;;;;;;7.82;5.45;;;;;;;;;;10399612;28;20105;-79
2024/01/17 18:24:01;;;;;;;;;;;;;;;;;;10397868;28;20030;-79
2024/01/17 18:29:05;;;;;;;7.35;4.63;;;;;;;;;;10386802;28;19905;-80
2024/01/17 18:34:06;;;;;;;9.45;5.72;;;;;;;;;;10379501;28;20112;-80
2024/01/17 18:39:07;;;;;;;6.78;4.88;;;;;;;;;;10378773;28;20026;-79
2024/01/17 18:44:08;;;;;;;8.50;4.82;;;;;;;;;;10380160;28;20037;-80
2024/01/17 18:49:09;;;;;;;7.95;4.47;;;;;;;;;;10380603;28;20037;-79
2024/01/17 18:54:11;;;;;;;6.47;5.22;;;;;;;;;;10382677;28;20041;-83
2024/01/17 18:59:12;;;;;;;5.68;4.30;;;;;;;;;;10386761;28;20089;-83
2024/01/17 19:04:13;;;;;;;;;;;;;;;;;;10387245;28;20129;-84
2024/01/17 19:09:15;;;;;;;6.68;5.38;;;;;;;;;;10385096;28;19912;-83
2024/01/17 19:14:16;;;;;;;6.68;4.60;;;;;;;;;;10384672;28;20033;-83
2024/01/17 19:19:20;;;;;;;6.63;4.55;;;;;;;;;;10384960;28;20117;-84
2024/01/17 19:24:21;;;;;;;8.63;5.63;;;;;;;;;;10384715;28;20379;-84
2024/01/17 19:29:22;;;;;;;9.52;6.55;;;;;;;;;;10385898;28;20165;-84
2024/01/17 19:34:23;;;;;;;7.65;5.03;;;;;;;;;;10384362;28;20061;-84
2024/01/17 19:39:25;;;;;;;6.40;4.07;;;;;;;;;;10386438;28;20018;-80
2024/01/17 19:44:28;;;;;;;5.47;4.10;;;;;;;;;;10377767;28;20026;-80
2024/01/17 19:49:29;;;;;;;7.07;5.70;;;;;;;;;;10383774;28;20033;-83
2024/01/17 19:54:30;;;;;;;6.90;4.70;;;;;;;;;;10387589;28;20044;-83
2024/01/17 19:59:31;;;;;;;7.47;5.13;;;;;;;;;;10390238;28;20026;-79
2024/01/17 20:04:32;;;;;;;5.43;4.30;;;;;;;;;;10429565;28;20017;-80
